sensor_id;sensor_type;location;lat;lon;timestamp;pressure;altitude;pressure_sealevel;temperature;humidity
16481;BME280;44634;54.110;12.138;2022-12-07T00:01:06;100791.38;;;4.10;100.00
16481;BME280;44634;54.110;12.138;2022-12-07T00:03:34;100803.69;;;3.65;100.00
16481;BME280;44634;54.110;12.138;2022-12-07T00:06:04;100808.56;;;3.85;100.00
16481;BME280;44634;54.110;12.138;2022-12-07T00:08:33;100816.47;;;3.70;100.00
16481;BME280;44634;54.110;12.138;2022-12-07T00:11:04;100823.22;;;3.88;100.00
16481;BME280;44634;54.110;12.138;2022-12-07T00:13:32;100804.75;;;3.91;100.00
16481;BME280;44634;54.110;12.138;2022-12-07T00:16:01;100799.97;;;3.83;100.00
16481;BME280;44634;54.110;12.138;2022-12-07T00:18:29;100798.28;;;3.82;100.00
16481;BME280;44634;54.110;12.138;2022-12-07T00:21:01;100792.56;;;3.90;100.00
16481;BME280;44634;54.110;12.138;2022-12-07T00:23:29;100779.78;;;3.85;100.00
16481;BME280;44634;54.110;12.138;2022-12-07T00:26:04;100801.50;;;3.43;100.00
16481;BME280;44634;54.110;12.138;2022-12-07T00:28:32;100802.00;;;3.64;100.00
16481;BME280;44634;54.110;12.138;2022-12-07T00:31:03;100793.25;;;3.94;100.00
16481;BME280;44634;54.110;12.138;2022-12-07T00:33:31;100796.44;;;3.40;100.00
16481;BME280;44634;54.110;12.138;2022-12-07T00:36:00;100795.75;;;3.95;100.00
16481;BME280;44634;54.110;12.138;2022-12-07T00:38:29;100786.44;;;3.33;100.00
16481;BME280;44634;54.110;12.138;2022-12-07T00:40:58;100822.91;;;3.50;100.00
16481;BME280;44634;54.110;12.138;2022-12-07T00:43:28;100847.50;;;3.46;100.00
16481;BME280;44634;54.110;12.138;2022-12-07T00:45:56;100855.50;;;3.28;100.00
16481;BME280;44634;54.110;12.138;2022-12-07T00:48:24;100866.69;;;3.31;100.00
16481;BME280;44634;54.110;12.138;2022-12-07T00:50:52;100876.81;;;3.37;100.00
16481;BME280;44634;54.110;12.138;2022-12-07T00:53:20;100872.91;;;3.44;100.00
16481;BME280;44634;54.110;12.138;2022-12-07T00:55:48;100866.31;;;3.52;100.00
16481;BME280;44634;54.110;12.138;2022-12-07T00:58:16;100871.03;;;3.46;100.00
16481;BME280;44634;54.110;12.138;2022-12-07T01:00:45;100864.91;;;3.61;100.00
16481;BME280;44634;54.110;12.138;2022-12-07T01:03:14;100854.31;;;3.34;100.00
16481;BME280;44634;54.110;12.138;2022-12-07T01:05:49;100868.09;;;3.06;100.00
16481;BME280;44634;54.110;12.138;2022-12-07T01:08:17;100892.31;;;3.40;100.00
16481;BME280;44634;54.110;12.138;2022-12-07T01:10:45;100896.09;;;3.50;100.00
16481;BME280;44634;54.110;12.138;2022-12-07T01:13:14;100896.09;;;3.04;100.00
16481;BME280;44634;54.110;12.138;2022-12-07T01:15:43;100908.94;;;3.23;100.00
16481;BME280;44634;54.110;12.138;2022-12-07T01:18:12;100906.88;;;3.44;100.00
16481;BME280;44634;54.110;12.138;2022-12-07T01:20:40;100914.00;;;3.26;100.00
16481;BME280;44634;54.110;12.138;2022-12-07T01:23:08;100905.94;;;3.45;100.00
16481;BME280;44634;54.110;12.138;2022-12-07T01:25:36;100903.19;;;3.32;100.00
16481;BME280;44634;54.110;12.138;2022-12-07T01:28:04;100910.97;;;3.34;100.00
16481;BME280;44634;54.110;12.138;2022-12-07T01:30:31;100916.53;;;3.57;100.00
16481;BME280;44634;54.110;12.138;2022-12-07T01:32:59;100903.47;;;3.27;100.00
16481;BME280;44634;54.110;12.138;2022-12-07T01:35:28;100916.81;;;3.53;100.00
16481;BME280;44634;54.110;12.138;2022-12-07T01:37:56;100901.56;;;3.45;100.00
16481;BME280;44634;54.110;12.138;2022-12-07T01:40:24;100884.38;;;3.41;100.00
16481;BME280;44634;54.110;12.138;2022-12-07T01:42:51;100870.22;;;3.29;100.00
16481;BME280;44634;54.110;12.138;2022-12-07T01:45:38;100871.59;;;3.37;100.00
16481;BME280;44634;54.110;12.138;2022-12-07T01:48:08;100891.56;;;3.38;100.00
16481;BME280;44634;54.110;12.138;2022-12-07T01:50:40;100885.34;;;3.54;100.00
16481;BME280;44634;54.110;12.138;2022-12-07T01:53:09;100888.88;;;3.23;100.00
16481;BME280;44634;54.110;12.138;2022-12-07T01:55:42;100893.63;;;3.47;100.00
16481;BME280;44634;54.110;12.138;2022-12-07T01:58:11;100892.03;;;3.74;100.00
16481;BME280;44634;54.110;12.138;2022-12-07T02:00:40;100872.50;;;3.66;100.00
16481;BME280;44634;54.110;12.138;2022-12-07T02:03:11;100877.09;;;3.46;100.00
16481;BME280;44634;54.110;12.138;2022-12-07T02:05:43;100878.84;;;3.16;100.00
16481;BME280;44634;54.110;12.138;2022-12-07T02:08:12;100877.19;;;3.75;100.00
16481;BME280;44634;54.110;12.138;2022-12-07T02:10:41;100867.00;;;3.70;100.00
16481;BME280;44634;54.110;12.138;2022-12-07T02:13:13;100845.44;;;3.81;100.00
16481;BME280;44634;54.110;12.138;2022-12-07T02:16:02;100828.09;;;3.36;100.00
16481;BME280;44634;54.110;12.138;2022-12-07T02:18:42;100847.88;;;3.40;100.00
16481;BME280;44634;54.110;12.138;2022-12-07T02:21:17;100858.03;;;3.14;100.00
16481;BME280;44634;54.110;12.138;2022-12-07T02:24:03;100863.47;;;3.41;100.00
16481;BME280;44634;54.110;12.138;2022-12-07T02:27:04;100874.41;;;3.78;100.00
16481;BME280;44634;54.110;12.138;2022-12-07T02:29:39;100864.44;;;3.24;100.00
16481;BME280;44634;54.110;12.138;2022-12-07T02:32:15;100883.91;;;3.35;100.00
16481;BME280;44634;54.110;12.138;2022-12-07T02:34:48;100887.66;;;2.99;100.00
16481;BME280;44634;54.110;12.138;2022-12-07T02:37:34;100905.56;;;3.37;100.00
16481;BME280;44634;54.110;12.138;2022-12-07T02:40:08;100903.22;;;3.16;100.00
16481;BME280;44634;54.110;12.138;2022-12-07T02:42:40;100912.00;;;3.75;100.00
16481;BME280;44634;54.110;12.138;2022-12-07T02:45:15;100901.44;;;3.93;100.00
16481;BME280;44634;54.110;12.138;2022-12-07T02:47:45;100891.94;;;3.46;100.00
16481;BME280;44634;54.110;12.138;2022-12-07T02:50:14;100906.44;;;3.51;100.00
16481;BME280;44634;54.110;12.138;2022-12-07T02:52:45;100905.28;;;3.71;100.00
16481;BME280;44634;54.110;12.138;2022-12-07T02:55:15;100920.97;;;3.41;100.00
16481;BME280;44634;54.110;12.138;2022-12-07T02:57:54;100917.97;;;3.33;100.00
16481;BME280;44634;54.110;12.138;2022-12-07T03:00:29;100947.94;;;3.42;100.00
16481;BME280;44634;54.110;12.138;2022-12-07T03:03:02;100964.19;;;3.63;100.00
16481;BME280;44634;54.110;12.138;2022-12-07T03:05:44;100956.09;;;3.67;100.00
16481;BME280;44634;54.110;12.138;2022-12-07T03:08:21;100937.03;;;3.19;100.00
16481;BME280;44634;54.110;12.138;2022-12-07T03:10:56;100960.09;;;3.11;100.00
16481;BME280;44634;54.110;12.138;2022-12-07T03:13:35;100954.75;;;3.44;100.00
16481;BME280;44634;54.110;12.138;2022-12-07T03:16:12;100964.91;;;3.03;100.00
16481;BME280;44634;54.110;12.138;2022-12-07T03:18:47;100971.31;;;3.13;100.00
16481;BME280;44634;54.110;12.138;2022-12-07T03:21:19;100972.69;;;3.20;100.00
16481;BME280;44634;54.110;12.138;2022-12-07T03:23:51;100971.22;;;3.31;100.00
16481;BME280;44634;54.110;12.138;2022-12-07T03:26:24;100977.28;;;3.47;100.00
16481;BME280;44634;54.110;12.138;2022-12-07T03:28:55;100974.72;;;3.77;100.00
16481;BME280;44634;54.110;12.138;2022-12-07T03:31:26;100962.25;;;3.66;100.00
16481;BME280;44634;54.110;12.138;2022-12-07T03:33:59;100960.78;;;4.06;100.00
16481;BME280;44634;54.110;12.138;2022-12-07T03:36:32;100932.56;;;4.26;100.00
16481;BME280;44634;54.110;12.138;2022-12-07T03:39:08;100910.88;;;3.65;100.00
16481;BME280;44634;54.110;12.138;2022-12-07T03:41:38;100909.25;;;3.78;100.00
16481;BME280;44634;54.110;12.138;2022-12-07T03:44:11;100900.06;;;3.71;100.00
16481;BME280;44634;54.110;12.138;2022-12-07T03:46:44;100903.88;;;3.66;100.00
16481;BME280;44634;54.110;12.138;2022-12-07T03:49:18;100926.31;;;3.24;100.00
16481;BME280;44634;54.110;12.138;2022-12-07T03:51:53;100940.47;;;3.36;100.00
16481;BME280;44634;54.110;12.138;2022-12-07T03:54:26;100953.63;;;3.34;100.00
16481;BME280;44634;54.110;12.138;2022-12-07T03:56:57;100951.66;;;3.53;100.00
16481;BME280;44634;54.110;12.138;2022-12-07T03:59:26;100955.84;;;3.56;100.00
16481;BME280;44634;54.110;12.138;2022-12-07T04:02:01;100952.84;;;3.32;100.00
16481;BME280;44634;54.110;12.138;2022-12-07T04:04:30;100954.34;;;3.82;100.00
16481;BME280;44634;54.110;12.138;2022-12-07T04:06:58;100949.75;;;3.25;100.00
16481;BME280;44634;54.110;12.138;2022-12-07T04:09:26;100954.97;;;3.10;100.00
16481;BME280;44634;54.110;12.138;2022-12-07T04:11:54;100964.13;;;3.17;100.00
16481;BME280;44634;54.110;12.138;2022-12-07T04:14:21;100975.53;;;3.00;100.00
16481;BME280;44634;54.110;12.138;2022-12-07T04:16:51;100983.22;;;3.19;100.00
16481;BME280;44634;54.110;12.138;2022-12-07T04:19:22;100975.50;;;3.32;100.00
16481;BME280;44634;54.110;12.138;2022-12-07T04:21:50;100978.03;;;3.65;100.00
16481;BME280;44634;54.110;12.138;2022-12-07T04:24:18;100972.09;;;3.61;100.00
16481;BME280;44634;54.110;12.138;2022-12-07T04:26:47;100967.66;;;3.63;100.00
16481;BME280;44634;54.110;12.138;2022-12-07T04:29:15;100954.53;;;3.17;100.00
16481;BME280;44634;54.110;12.138;2022-12-07T04:31:43;100959.84;;;3.32;100.00
16481;BME280;44634;54.110;12.138;2022-12-07T04:34:12;100962.53;;;3.14;100.00
16481;BME280;44634;54.110;12.138;2022-12-07T04:36:42;100974.16;;;3.40;100.00
16481;BME280;44634;54.110;12.138;2022-12-07T04:39:18;100970.03;;;3.52;100.00
16481;BME280;44634;54.110;12.138;2022-12-07T04:41:46;100967.72;;;3.62;100.00
16481;BME280;44634;54.110;12.138;2022-12-07T04:44:15;100961.25;;;3.53;100.00
16481;BME280;44634;54.110;12.138;2022-12-07T04:46:43;100961.00;;;3.57;100.00
16481;BME280;44634;54.110;12.138;2022-12-07T04:49:12;100960.00;;;3.44;100.00
16481;BME280;44634;54.110;12.138;2022-12-07T04:51:42;100956.50;;;3.59;100.00
16481;BME280;44634;54.110;12.138;2022-12-07T04:54:10;100951.28;;;3.59;100.00
16481;BME280;44634;54.110;12.138;2022-12-07T04:56:38;100953.97;;;3.58;100.00
16481;BME280;44634;54.110;12.138;2022-12-07T04:59:06;100960.00;;;3.28;100.00
16481;BME280;44634;54.110;12.138;2022-12-07T05:01:34;100971.75;;;3.37;100.00
16481;BME280;44634;54.110;12.138;2022-12-07T05:04:02;100980.50;;;3.52;100.00
16481;BME280;44634;54.110;12.138;2022-12-07T05:06:30;100973.03;;;3.60;100.00
16481;BME280;44634;54.110;12.138;2022-12-07T05:08:59;100977.59;;;3.56;100.00
16481;BME280;44634;54.110;12.138;2022-12-07T05:11:27;100990.91;;;3.68;100.00
16481;BME280;44634;54.110;12.138;2022-12-07T05:14:11;100988.75;;;3.90;100.00
16481;BME280;44634;54.110;12.138;2022-12-07T05:16:39;100967.72;;;3.62;100.00
16481;BME280;44634;54.110;12.138;2022-12-07T05:19:08;100976.34;;;3.64;100.00
16481;BME280;44634;54.110;12.138;2022-12-07T05:21:36;100973.22;;;3.57;100.00
16481;BME280;44634;54.110;12.138;2022-12-07T05:24:07;100979.09;;;3.61;100.00
16481;BME280;44634;54.110;12.138;2022-12-07T05:26:35;100966.38;;;3.70;100.00
16481;BME280;44634;54.110;12.138;2022-12-07T05:29:03;100960.75;;;3.62;100.00
16481;BME280;44634;54.110;12.138;2022-12-07T05:31:31;100958.53;;;3.70;100.00
16481;BME280;44634;54.110;12.138;2022-12-07T05:33:59;100958.25;;;3.75;100.00
16481;BME280;44634;54.110;12.138;2022-12-07T05:36:27;100958.19;;;3.61;100.00
16481;BME280;44634;54.110;12.138;2022-12-07T05:38:57;100953.75;;;3.63;100.00
16481;BME280;44634;54.110;12.138;2022-12-07T05:41:27;100951.66;;;3.83;100.00
16481;BME280;44634;54.110;12.138;2022-12-07T05:44:12;100932.13;;;3.89;100.00
16481;BME280;44634;54.110;12.138;2022-12-07T05:46:40;100919.66;;;3.94;100.00
16481;BME280;44634;54.110;12.138;2022-12-07T05:49:07;100921.47;;;3.78;100.00
16481;BME280;44634;54.110;12.138;2022-12-07T05:51:35;100931.63;;;3.68;100.00
16481;BME280;44634;54.110;12.138;2022-12-07T05:54:03;100939.06;;;3.60;100.00
16481;BME280;44634;54.110;12.138;2022-12-07T05:56:32;100943.00;;;3.67;100.00
16481;BME280;44634;54.110;12.138;2022-12-07T05:59:00;100928.78;;;3.87;100.00
16481;BME280;44634;54.110;12.138;2022-12-07T06:01:46;100929.88;;;3.83;100.00
16481;BME280;44634;54.110;12.138;2022-12-07T06:04:13;100920.66;;;3.92;100.00
16481;BME280;44634;54.110;12.138;2022-12-07T06:06:41;100917.28;;;3.59;100.00
16481;BME280;44634;54.110;12.138;2022-12-07T06:09:10;100930.28;;;3.91;100.00
16481;BME280;44634;54.110;12.138;2022-12-07T06:11:39;100919.00;;;3.91;100.00
16481;BME280;44634;54.110;12.138;2022-12-07T06:14:25;100905.91;;;4.05;100.00
16481;BME280;44634;54.110;12.138;2022-12-07T06:16:52;100896.22;;;4.21;100.00
16481;BME280;44634;54.110;12.138;2022-12-07T06:19:20;100889.94;;;4.09;100.00
16481;BME280;44634;54.110;12.138;2022-12-07T06:21:48;100878.06;;;4.18;100.00
16481;BME280;44634;54.110;12.138;2022-12-07T06:24:17;100881.25;;;4.09;100.00
16481;BME280;44634;54.110;12.138;2022-12-07T06:26:46;100875.00;;;4.11;100.00
16481;BME280;44634;54.110;12.138;2022-12-07T06:29:15;100877.50;;;3.54;100.00
16481;BME280;44634;54.110;12.138;2022-12-07T06:31:43;100893.81;;;3.74;100.00
16481;BME280;44634;54.110;12.138;2022-12-07T06:34:12;100905.59;;;3.81;100.00
16481;BME280;44634;54.110;12.138;2022-12-07T06:36:41;100915.38;;;3.63;100.00
16481;BME280;44634;54.110;12.138;2022-12-07T06:39:09;100925.16;;;4.04;100.00
16481;BME280;44634;54.110;12.138;2022-12-07T06:41:39;100919.78;;;4.21;100.00
16481;BME280;44634;54.110;12.138;2022-12-07T06:44:08;100912.66;;;4.09;100.00
16481;BME280;44634;54.110;12.138;2022-12-07T06:46:36;100909.66;;;4.01;100.00
16481;BME280;44634;54.110;12.138;2022-12-07T06:49:04;100909.38;;;3.91;100.00
16481;BME280;44634;54.110;12.138;2022-12-07T06:51:33;100905.00;;;4.20;100.00
16481;BME280;44634;54.110;12.138;2022-12-07T06:54:02;100900.22;;;3.98;100.00
16481;BME280;44634;54.110;12.138;2022-12-07T06:56:29;100899.00;;;4.04;100.00
16481;BME280;44634;54.110;12.138;2022-12-07T06:58:57;100895.75;;;4.14;100.00
16481;BME280;44634;54.110;12.138;2022-12-07T07:01:26;100901.63;;;4.18;100.00
16481;BME280;44634;54.110;12.138;2022-12-07T07:03:54;100901.31;;;3.80;100.00
16481;BME280;44634;54.110;12.138;2022-12-07T07:06:22;100918.25;;;4.03;100.00
16481;BME280;44634;54.110;12.138;2022-12-07T07:08:50;100923.59;;;4.15;100.00
16481;BME280;44634;54.110;12.138;2022-12-07T07:11:18;100916.13;;;4.24;100.00
16481;BME280;44634;54.110;12.138;2022-12-07T07:13:46;100915.91;;;3.98;100.00
16481;BME280;44634;54.110;12.138;2022-12-07T07:16:14;100928.81;;;3.71;100.00
16481;BME280;44634;54.110;12.138;2022-12-07T07:18:43;100939.09;;;3.44;100.00
16481;BME280;44634;54.110;12.138;2022-12-07T07:21:11;100940.06;;;3.87;100.00
16481;BME280;44634;54.110;12.138;2022-12-07T07:23:38;100927.75;;;3.89;100.00
16481;BME280;44634;54.110;12.138;2022-12-07T07:26:06;100933.91;;;3.88;100.00
16481;BME280;44634;54.110;12.138;2022-12-07T07:28:34;100925.16;;;4.04;100.00
16481;BME280;44634;54.110;12.138;2022-12-07T07:31:02;100917.25;;;4.05;100.00
16481;BME280;44634;54.110;12.138;2022-12-07T07:33:29;100912.84;;;4.06;100.00
16481;BME280;44634;54.110;12.138;2022-12-07T07:35:59;100903.72;;;3.83;100.00
16481;BME280;44634;54.110;12.138;2022-12-07T07:38:26;100918.00;;;4.22;100.00
16481;BME280;44634;54.110;12.138;2022-12-07T07:40:54;100914.22;;;3.97;100.00
16481;BME280;44634;54.110;12.138;2022-12-07T07:43:22;100922.13;;;3.81;100.00
16481;BME280;44634;54.110;12.138;2022-12-07T07:45:50;100934.28;;;3.82;100.00
16481;BME280;44634;54.110;12.138;2022-12-07T07:48:18;100941.00;;;3.56;100.00
16481;BME280;44634;54.110;12.138;2022-12-07T07:50:46;100954.44;;;3.80;100.00
16481;BME280;44634;54.110;12.138;2022-12-07T07:53:15;100953.78;;;4.07;100.00
16481;BME280;44634;54.110;12.138;2022-12-07T07:55:50;100954.16;;;4.15;100.00
16481;BME280;44634;54.110;12.138;2022-12-07T07:58:18;100965.97;;;3.92;100.00
16481;BME280;44634;54.110;12.138;2022-12-07T08:00:45;100960.50;;;4.11;100.00
16481;BME280;44634;54.110;12.138;2022-12-07T08:03:13;100955.63;;;4.19;100.00
16481;BME280;44634;54.110;12.138;2022-12-07T08:05:41;100955.56;;;3.76;100.00
16481;BME280;44634;54.110;12.138;2022-12-07T08:08:09;100955.25;;;3.97;100.00
16481;BME280;44634;54.110;12.138;2022-12-07T08:10:38;100957.44;;;4.61;100.00
16481;BME280;44634;54.110;12.138;2022-12-07T08:13:06;100932.16;;;4.89;100.00
16481;BME280;44634;54.110;12.138;2022-12-07T08:15:41;100914.19;;;4.97;100.00
16481;BME280;44634;54.110;12.138;2022-12-07T08:18:09;100888.53;;;4.32;100.00
16481;BME280;44634;54.110;12.138;2022-12-07T08:20:38;100888.94;;;4.40;100.00
16481;BME280;44634;54.110;12.138;2022-12-07T08:23:07;100884.31;;;4.58;100.00
16481;BME280;44634;54.110;12.138;2022-12-07T08:25:38;100866.19;;;4.55;100.00
16481;BME280;44634;54.110;12.138;2022-12-07T08:28:06;100854.16;;;4.38;100.00
16481;BME280;44634;54.110;12.138;2022-12-07T08:30:34;100844.88;;;4.33;100.00
16481;BME280;44634;54.110;12.138;2022-12-07T08:33:02;100837.78;;;4.49;100.00
16481;BME280;44634;54.110;12.138;2022-12-07T08:35:29;100828.81;;;4.39;100.00
16481;BME280;44634;54.110;12.138;2022-12-07T08:37:57;100813.16;;;4.93;100.00
16481;BME280;44634;54.110;12.138;2022-12-07T08:40:25;100773.84;;;6.09;100.00
16481;BME280;44634;54.110;12.138;2022-12-07T08:42:54;100718.75;;;5.20;100.00
16481;BME280;44634;54.110;12.138;2022-12-07T08:45:22;100711.00;;;5.69;100.00
16481;BME280;44634;54.110;12.138;2022-12-07T08:47:56;100703.13;;;5.18;100.00
16481;BME280;44634;54.110;12.138;2022-12-07T08:50:26;100668.22;;;5.05;100.00
16481;BME280;44634;54.110;12.138;2022-12-07T08:52:55;100672.81;;;4.89;100.00
16481;BME280;44634;54.110;12.138;2022-12-07T08:55:24;100673.69;;;4.50;100.00
16481;BME280;44634;54.110;12.138;2022-12-07T08:57:55;100695.00;;;4.43;100.00
16481;BME280;44634;54.110;12.138;2022-12-07T09:00:24;100712.28;;;4.46;100.00
16481;BME280;44634;54.110;12.138;2022-12-07T09:02:53;100738.03;;;4.39;100.00
16481;BME280;44634;54.110;12.138;2022-12-07T09:05:21;100749.34;;;4.40;100.00
16481;BME280;44634;54.110;12.138;2022-12-07T09:07:51;100754.88;;;4.35;100.00
16481;BME280;44634;54.110;12.138;2022-12-07T09:10:21;100748.72;;;4.36;100.00
16481;BME280;44634;54.110;12.138;2022-12-07T09:12:50;100742.59;;;4.50;100.00
16481;BME280;44634;54.110;12.138;2022-12-07T09:15:19;100730.09;;;4.68;100.00
16481;BME280;44634;54.110;12.138;2022-12-07T09:17:47;100730.31;;;4.24;100.00
16481;BME280;44634;54.110;12.138;2022-12-07T09:20:15;100740.31;;;4.17;100.00
16481;BME280;44634;54.110;12.138;2022-12-07T09:22:42;100763.31;;;5.07;100.00
16481;BME280;44634;54.110;12.138;2022-12-07T09:25:10;100717.53;;;6.25;100.00
16481;BME280;44634;54.110;12.138;2022-12-07T09:27:38;100613.06;;;6.18;100.00
16481;BME280;44634;54.110;12.138;2022-12-07T09:30:07;100557.78;;;6.43;100.00
16481;BME280;44634;54.110;12.138;2022-12-07T09:32:36;100545.97;;;5.29;100.00
16481;BME280;44634;54.110;12.138;2022-12-07T09:35:04;100555.44;;;5.92;100.00
16481;BME280;44634;54.110;12.138;2022-12-07T09:37:33;100511.97;;;6.92;100.00
16481;BME280;44634;54.110;12.138;2022-12-07T09:40:04;100434.53;;;7.19;100.00
16481;BME280;44634;54.110;12.138;2022-12-07T09:42:35;100368.44;;;7.97;100.00
16481;BME280;44634;54.110;12.138;2022-12-07T09:45:05;100347.44;;;7.65;100.00
16481;BME280;44634;54.110;12.138;2022-12-07T09:47:36;100339.66;;;7.63;100.00
16481;BME280;44634;54.110;12.138;2022-12-07T09:50:07;100351.31;;;6.97;100.00
16481;BME280;44634;54.110;12.138;2022-12-07T09:52:39;100376.16;;;5.92;100.00
16481;BME280;44634;54.110;12.138;2022-12-07T09:55:11;100425.88;;;5.58;100.00
16481;BME280;44634;54.110;12.138;2022-12-07T09:57:39;100462.16;;;5.41;100.00
16481;BME280;44634;54.110;12.138;2022-12-07T10:00:12;100452.16;;;5.70;100.00
16481;BME280;44634;54.110;12.138;2022-12-07T10:02:43;100463.78;;;5.89;100.00
16481;BME280;44634;54.110;12.138;2022-12-07T10:05:14;100446.41;;;6.46;100.00
16481;BME280;44634;54.110;12.138;2022-12-07T10:07:49;100387.44;;;6.61;100.00
16481;BME280;44634;54.110;12.138;2022-12-07T10:10:20;100328.75;;;7.89;100.00
16481;BME280;44634;54.110;12.138;2022-12-07T10:12:56;100297.63;;;7.73;100.00
16481;BME280;44634;54.110;12.138;2022-12-07T10:15:41;100275.56;;;8.25;100.00
16481;BME280;44634;54.110;12.138;2022-12-07T10:18:27;100260.56;;;8.56;100.00
16481;BME280;44634;54.110;12.138;2022-12-07T10:21:14;100254.22;;;8.28;100.00
16481;BME280;44634;54.110;12.138;2022-12-07T10:23:59;100241.53;;;7.72;100.00
16481;BME280;44634;54.110;12.138;2022-12-07T10:26:31;100261.44;;;7.03;100.00
16481;BME280;44634;54.110;12.138;2022-12-07T10:29:12;100255.25;;;6.61;100.00
16481;BME280;44634;54.110;12.138;2022-12-07T10:31:42;100280.97;;;5.79;100.00
16481;BME280;44634;54.110;12.138;2022-12-07T10:34:22;100315.09;;;5.79;100.00
16481;BME280;44634;54.110;12.138;2022-12-07T10:36:52;100329.41;;;5.40;100.00
16481;BME280;44634;54.110;12.138;2022-12-07T10:39:22;100335.09;;;5.33;100.00
16481;BME280;44634;54.110;12.138;2022-12-07T10:41:54;100354.00;;;5.02;100.00
16481;BME280;44634;54.110;12.138;2022-12-07T10:44:24;100332.16;;;5.38;100.00
16481;BME280;44634;54.110;12.138;2022-12-07T10:47:18;100293.84;;;5.24;100.00
16481;BME280;44634;54.110;12.138;2022-12-07T10:50:12;100269.81;;;4.95;100.00
16481;BME280;44634;54.110;12.138;2022-12-07T10:53:04;100264.16;;;4.89;100.00
16481;BME280;44634;54.110;12.138;2022-12-07T10:55:48;100259.81;;;4.76;100.00
16481;BME280;44634;54.110;12.138;2022-12-07T10:58:32;100266.28;;;4.84;100.00
16481;BME280;44634;54.110;12.138;2022-12-07T11:01:12;100258.59;;;4.69;100.00
16481;BME280;44634;54.110;12.138;2022-12-07T11:04:03;100252.38;;;4.83;100.00
16481;BME280;44634;54.110;12.138;2022-12-07T11:06:39;100261.22;;;4.69;100.00
16481;BME280;44634;54.110;12.138;2022-12-07T11:09:36;100260.28;;;5.05;100.00
16481;BME280;44634;54.110;12.138;2022-12-07T11:12:36;100284.34;;;6.25;100.00
16481;BME280;44634;54.110;12.138;2022-12-07T11:15:14;100703.50;;;5.88;100.00
16481;BME280;44634;54.110;12.138;2022-12-07T11:17:49;100582.56;;;5.31;100.00
16481;BME280;44634;54.110;12.138;2022-12-07T11:20:32;100578.84;;;5.46;100.00
16481;BME280;44634;54.110;12.138;2022-12-07T11:23:13;100576.22;;;5.46;100.00
16481;BME280;44634;54.110;12.138;2022-12-07T11:25:51;100542.06;;;5.35;100.00
16481;BME280;44634;54.110;12.138;2022-12-07T11:28:32;100525.69;;;5.44;100.00
16481;BME280;44634;54.110;12.138;2022-12-07T11:31:12;100529.06;;;5.33;100.00
16481;BME280;44634;54.110;12.138;2022-12-07T11:33:57;100530.72;;;4.98;100.00
16481;BME280;44634;54.110;12.138;2022-12-07T11:36:37;100520.78;;;5.40;100.00
16481;BME280;44634;54.110;12.138;2022-12-07T11:39:23;100516.81;;;5.34;100.00
16481;BME280;44634;54.110;12.138;2022-12-07T11:41:56;100481.50;;;5.27;100.00
16481;BME280;44634;54.110;12.138;2022-12-07T11:44:36;100428.06;;;5.41;100.00
16481;BME280;44634;54.110;12.138;2022-12-07T11:47:08;100405.13;;;5.55;100.00
16481;BME280;44634;54.110;12.138;2022-12-07T11:49:42;100381.59;;;5.43;100.00
16481;BME280;44634;54.110;12.138;2022-12-07T11:52:20;100387.59;;;5.21;100.00
16481;BME280;44634;54.110;12.138;2022-12-07T11:54:52;100373.03;;;5.41;100.00
16481;BME280;44634;54.110;12.138;2022-12-07T11:57:26;100378.97;;;5.43;100.00
16481;BME280;44634;54.110;12.138;2022-12-07T12:00:00;100324.88;;;4.83;100.00
16481;BME280;44634;54.110;12.138;2022-12-07T12:02:34;100311.31;;;4.65;100.00
16481;BME280;44634;54.110;12.138;2022-12-07T12:05:13;100297.00;;;4.82;100.00
16481;BME280;44634;54.110;12.138;2022-12-07T12:07:44;100312.56;;;4.96;100.00
16481;BME280;44634;54.110;12.138;2022-12-07T12:10:42;100282.91;;;4.95;100.00
16481;BME280;44634;54.110;12.138;2022-12-07T12:16:49;100266.56;;;4.92;100.00
16481;BME280;44634;54.110;12.138;2022-12-07T12:19:27;100269.84;;;4.59;100.00
16481;BME280;44634;54.110;12.138;2022-12-07T12:22:06;100263.19;;;4.78;100.00
16481;BME280;44634;54.110;12.138;2022-12-07T12:24:39;100274.88;;;5.10;100.00
16481;BME280;44634;54.110;12.138;2022-12-07T12:27:15;100275.81;;;5.08;100.00
16481;BME280;44634;54.110;12.138;2022-12-07T12:29:52;100299.59;;;4.58;100.00
16481;BME280;44634;54.110;12.138;2022-12-07T12:32:22;100348.41;;;4.59;100.00
16481;BME280;44634;54.110;12.138;2022-12-07T12:35:20;100382.59;;;4.81;100.00
16481;BME280;44634;54.110;12.138;2022-12-07T12:37:52;100338.41;;;5.24;100.00
16481;BME280;44634;54.110;12.138;2022-12-07T12:40:43;100314.75;;;5.13;100.00
16481;BME280;44634;54.110;12.138;2022-12-07T12:43:50;100314.19;;;4.49;100.00
16481;BME280;44634;54.110;12.138;2022-12-07T12:46:47;100301.91;;;4.86;100.00
16481;BME280;44634;54.110;12.138;2022-12-07T12:49:40;100311.91;;;5.16;100.00
16481;BME280;44634;54.110;12.138;2022-12-07T12:55:19;100316.91;;;4.84;100.00
16481;BME280;44634;54.110;12.138;2022-12-07T13:04:24;100312.75;;;4.32;100.00
16481;BME280;44634;54.110;12.138;2022-12-07T13:06:53;100288.84;;;4.73;100.00
16481;BME280;44634;54.110;12.138;2022-12-07T13:09:23;100292.66;;;4.69;100.00
16481;BME280;44634;54.110;12.138;2022-12-07T13:11:58;100293.25;;;4.73;100.00
16481;BME280;44634;54.110;12.138;2022-12-07T13:14:42;100289.50;;;5.12;100.00
16481;BME280;44634;54.110;12.138;2022-12-07T13:17:11;100291.09;;;4.67;100.00
16481;BME280;44634;54.110;12.138;2022-12-07T13:19:58;100262.72;;;4.61;100.00